sensor_id;sensor_type;location;lat;lon;timestamp;pressure;altitude;pressure_sealevel;temperature;humidity
19210;BME280;9738;51.654;14.238;2023-04-05T00:01:27;101335.66;;;0.15;100.00
19210;BME280;9738;51.654;14.238;2023-04-05T00:03:57;101329.50;;;0.16;100.00
19210;BME280;9738;51.654;14.238;2023-04-05T00:06:28;101331.34;;;0.14;100.00
19210;BME280;9738;51.654;14.238;2023-04-05T00:08:58;101332.28;;;0.11;100.00
19210;BME280;9738;51.654;14.238;2023-04-05T00:11:26;101329.50;;;0.16;100.00
19210;BME280;9738;51.654;14.238;2023-04-05T00:13:52;101328.72;;;0.14;100.00
19210;BME280;9738;51.654;14.238;2023-04-05T00:16:19;101328.63;;;0.15;100.00
19210;BME280;9738;51.654;14.238;2023-04-05T00:18:45;101326.09;;;0.14;100.00
19210;BME280;9738;51.654;14.238;2023-04-05T00:21:15;101330.72;;;0.07;100.00
19210;BME280;9738;51.654;14.238;2023-04-05T00:23:41;101327.53;;;-0.01;100.00
19210;BME280;9738;51.654;14.238;2023-04-05T00:26:10;101322.59;;;-0.09;100.00
19210;BME280;9738;51.654;14.238;2023-04-05T00:28:36;101321.94;;;-0.14;100.00
19210;BME280;9738;51.654;14.238;2023-04-05T00:31:04;101323.03;;;-0.19;100.00
19210;BME280;9738;51.654;14.238;2023-04-05T00:33:30;101317.06;;;-0.23;100.00
19210;BME280;9738;51.654;14.238;2023-04-05T00:35:56;101316.38;;;-0.28;100.00
19210;BME280;9738;51.654;14.238;2023-04-05T00:38:23;101319.25;;;-0.34;100.00
19210;BME280;9738;51.654;14.238;2023-04-05T00:40:48;101316.94;;;-0.42;100.00
19210;BME280;9738;51.654;14.238;2023-04-05T00:43:14;101312.78;;;-0.47;100.00
19210;BME280;9738;51.654;14.238;2023-04-05T00:45:40;101314.72;;;-0.52;100.00
19210;BME280;9738;51.654;14.238;2023-04-05T00:48:07;101310.63;;;-0.60;100.00
19210;BME280;9738;51.654;14.238;2023-04-05T00:50:33;101310.91;;;-0.67;100.00
19210;BME280;9738;51.654;14.238;2023-04-05T00:53:00;101309.44;;;-0.74;100.00
19210;BME280;9738;51.654;14.238;2023-04-05T00:55:26;101307.84;;;-0.78;100.00
19210;BME280;9738;51.654;14.238;2023-04-05T00:57:53;101300.88;;;-0.79;100.00
19210;BME280;9738;51.654;14.238;2023-04-05T01:00:21;101300.09;;;-0.82;100.00
19210;BME280;9738;51.654;14.238;2023-04-05T01:02:49;101307.28;;;-0.87;100.00
19210;BME280;9738;51.654;14.238;2023-04-05T01:05:24;101306.72;;;-0.95;100.00
19210;BME280;9738;51.654;14.238;2023-04-05T01:08:03;101319.22;;;-1.03;100.00
19210;BME280;9738;51.654;14.238;2023-04-05T01:10:35;101316.88;;;-1.11;100.00
19210;BME280;9738;51.654;14.238;2023-04-05T01:13:05;101310.16;;;-1.18;100.00
19210;BME280;9738;51.654;14.238;2023-04-05T01:15:31;101317.28;;;-1.21;100.00
19210;BME280;9738;51.654;14.238;2023-04-05T01:17:57;101315.75;;;-1.27;100.00
19210;BME280;9738;51.654;14.238;2023-04-05T01:20:34;101309.00;;;-1.34;100.00
19210;BME280;9738;51.654;14.238;2023-04-05T01:23:14;101313.66;;;-1.42;100.00
19210;BME280;9738;51.654;14.238;2023-04-05T01:28:48;101309.75;;;-1.55;100.00
19210;BME280;9738;51.654;14.238;2023-04-05T01:31:34;101307.19;;;-1.57;100.00
19210;BME280;9738;51.654;14.238;2023-04-05T01:34:09;101307.25;;;-1.58;100.00
19210;BME280;9738;51.654;14.238;2023-04-05T01:36:47;101300.06;;;-1.53;100.00
19210;BME280;9738;51.654;14.238;2023-04-05T01:39:16;101303.72;;;-1.57;100.00
19210;BME280;9738;51.654;14.238;2023-04-05T01:41:45;101308.31;;;-1.64;100.00
19210;BME280;9738;51.654;14.238;2023-04-05T01:44:11;101299.81;;;-1.71;100.00
19210;BME280;9738;51.654;14.238;2023-04-05T01:46:37;101285.69;;;-1.67;100.00
19210;BME280;9738;51.654;14.238;2023-04-05T01:49:03;101285.59;;;-1.64;100.00
19210;BME280;9738;51.654;14.238;2023-04-05T01:51:29;101284.56;;;-1.59;100.00
19210;BME280;9738;51.654;14.238;2023-04-05T01:53:56;101274.97;;;-1.59;100.00
19210;BME280;9738;51.654;14.238;2023-04-05T01:56:22;101264.56;;;-1.62;100.00
19210;BME280;9738;51.654;14.238;2023-04-05T01:58:48;101265.66;;;-1.68;100.00
19210;BME280;9738;51.654;14.238;2023-04-05T02:01:14;101264.72;;;-1.67;100.00
19210;BME280;9738;51.654;14.238;2023-04-05T02:03:40;101268.09;;;-1.63;100.00
19210;BME280;9738;51.654;14.238;2023-04-05T02:06:06;101271.47;;;-1.59;100.00
19210;BME280;9738;51.654;14.238;2023-04-05T02:08:32;101281.28;;;-1.66;100.00
19210;BME280;9738;51.654;14.238;2023-04-05T02:10:58;101275.41;;;-1.73;100.00
19210;BME280;9738;51.654;14.238;2023-04-05T02:13:24;101283.47;;;-1.79;100.00
19210;BME280;9738;51.654;14.238;2023-04-05T02:15:50;101281.19;;;-1.88;100.00
19210;BME280;9738;51.654;14.238;2023-04-05T02:18:17;101280.53;;;-1.95;100.00
19210;BME280;9738;51.654;14.238;2023-04-05T02:20:50;101285.13;;;-2.01;100.00
19210;BME280;9738;51.654;14.238;2023-04-05T02:23:18;101277.41;;;-2.06;100.00
19210;BME280;9738;51.654;14.238;2023-04-05T02:25:44;101286.13;;;-2.05;100.00
19210;BME280;9738;51.654;14.238;2023-04-05T02:28:10;101282.78;;;-2.10;100.00
19210;BME280;9738;51.654;14.238;2023-04-05T02:30:36;101280.38;;;-2.17;100.00
19210;BME280;9738;51.654;14.238;2023-04-05T02:33:02;101282.31;;;-2.22;100.00
19210;BME280;9738;51.654;14.238;2023-04-05T02:35:28;101288.59;;;-2.27;100.00
19210;BME280;9738;51.654;14.238;2023-04-05T02:37:54;101286.22;;;-2.35;100.00
19210;BME280;9738;51.654;14.238;2023-04-05T02:40:21;101282.84;;;-2.38;100.00
19210;BME280;9738;51.654;14.238;2023-04-05T02:42:47;101280.22;;;-2.38;100.00
19210;BME280;9738;51.654;14.238;2023-04-05T02:45:13;101275.19;;;-2.45;100.00
19210;BME280;9738;51.654;14.238;2023-04-05T02:47:39;101280.53;;;-2.48;100.00
19210;BME280;9738;51.654;14.238;2023-04-05T02:50:05;101284.19;;;-2.55;100.00
19210;BME280;9738;51.654;14.238;2023-04-05T02:52:31;101274.72;;;-2.57;100.00
19210;BME280;9738;51.654;14.238;2023-04-05T02:54:58;101273.06;;;-2.61;100.00
19210;BME280;9738;51.654;14.238;2023-04-05T02:57:24;101267.19;;;-2.68;100.00
19210;BME280;9738;51.654;14.238;2023-04-05T02:59:51;101269.91;;;-2.71;100.00
19210;BME280;9738;51.654;14.238;2023-04-05T03:02:17;101258.66;;;-2.75;100.00
19210;BME280;9738;51.654;14.238;2023-04-05T03:04:42;101268.28;;;-2.75;100.00
19210;BME280;9738;51.654;14.238;2023-04-05T03:07:09;101257.88;;;-2.77;100.00
19210;BME280;9738;51.654;14.238;2023-04-05T03:09:38;101262.19;;;-2.76;100.00
19210;BME280;9738;51.654;14.238;2023-04-05T03:12:04;101269.19;;;-2.76;100.00
19210;BME280;9738;51.654;14.238;2023-04-05T03:14:32;101269.31;;;-2.81;100.00
19210;BME280;9738;51.654;14.238;2023-04-05T03:16:57;101271.97;;;-2.82;100.00
19210;BME280;9738;51.654;14.238;2023-04-05T03:19:24;101266.88;;;-2.87;100.00
19210;BME280;9738;51.654;14.238;2023-04-05T03:21:54;101261.75;;;-2.90;100.00
19210;BME280;9738;51.654;14.238;2023-04-05T03:24:20;101260.78;;;-2.87;100.00
19210;BME280;9738;51.654;14.238;2023-04-05T03:26:46;101258.97;;;-2.84;100.00
19210;BME280;9738;51.654;14.238;2023-04-05T03:29:14;101260.59;;;-2.80;100.00
19210;BME280;9738;51.654;14.238;2023-04-05T03:31:40;101258.66;;;-2.75;100.00
19210;BME280;9738;51.654;14.238;2023-04-05T03:34:06;101257.88;;;-2.77;100.00
19210;BME280;9738;51.654;14.238;2023-04-05T03:36:32;101258.78;;;-2.78;100.00
19210;BME280;9738;51.654;14.238;2023-04-05T03:39:11;101258.84;;;-2.81;100.00
19210;BME280;9738;51.654;14.238;2023-04-05T03:41:39;101260.72;;;-2.84;100.00
19210;BME280;9738;51.654;14.238;2023-04-05T03:44:05;101257.31;;;-2.88;100.00
19210;BME280;9738;51.654;14.238;2023-04-05T03:46:31;101266.88;;;-2.87;100.00
19210;BME280;9738;51.654;14.238;2023-04-05T03:48:58;101261.56;;;-2.84;100.00
19210;BME280;9738;51.654;14.238;2023-04-05T03:51:24;101251.97;;;-2.83;100.00
19210;BME280;9738;51.654;14.238;2023-04-05T03:53:50;101250.25;;;-2.84;100.00
19210;BME280;9738;51.654;14.238;2023-04-05T03:56:16;101256.41;;;-2.87;100.00
19210;BME280;9738;51.654;14.238;2023-04-05T03:58:43;101247.72;;;-2.86;100.00
19210;BME280;9738;51.654;14.238;2023-04-05T04:01:09;101251.13;;;-2.84;100.00
19210;BME280;9738;51.654;14.238;2023-04-05T04:03:36;101254.63;;;-2.85;100.00
19210;BME280;9738;51.654;14.238;2023-04-05T04:06:05;101253.88;;;-2.88;100.00
19210;BME280;9738;51.654;14.238;2023-04-05T04:08:32;101255.69;;;-2.90;100.00
19210;BME280;9738;51.654;14.238;2023-04-05T04:10:58;101254.94;;;-2.95;100.00
19210;BME280;9738;51.654;14.238;2023-04-05T04:13:24;101258.53;;;-2.98;100.00
19210;BME280;9738;51.654;14.238;2023-04-05T04:15:51;101257.63;;;-2.97;100.00
19210;BME280;9738;51.654;14.238;2023-04-05T04:18:17;101249.72;;;-2.95;100.00
19210;BME280;9738;51.654;14.238;2023-04-05T04:20:43;101257.31;;;-2.88;100.00
19210;BME280;9738;51.654;14.238;2023-04-05T04:23:09;101251.06;;;-2.82;100.00
19210;BME280;9738;51.654;14.238;2023-04-05T04:25:35;101259.69;;;-2.79;100.00
19210;BME280;9738;51.654;14.238;2023-04-05T04:28:03;101257.88;;;-2.77;100.00
19210;BME280;9738;51.654;14.238;2023-04-05T04:30:31;101245.59;;;-2.75;100.00
19210;BME280;9738;51.654;14.238;2023-04-05T04:33:00;101250.81;;;-2.75;100.00
19210;BME280;9738;51.654;14.238;2023-04-05T04:35:29;101249.13;;;-2.76;100.00
19210;BME280;9738;51.654;14.238;2023-04-05T04:37:56;101253.53;;;-2.78;100.00
19210;BME280;9738;51.654;14.238;2023-04-05T04:40:44;101249.22;;;-2.79;100.00
19210;BME280;9738;51.654;14.238;2023-04-05T04:43:15;101251.66;;;-2.73;100.00
19210;BME280;9738;51.654;14.238;2023-04-05T04:45:52;101253.31;;;-2.70;100.00
19210;BME280;9738;51.654;14.238;2023-04-05T04:48:20;101252.34;;;-2.67;100.00
19210;BME280;9738;51.654;14.238;2023-04-05T04:50:47;101260.91;;;-2.62;100.00
19210;BME280;9738;51.654;14.238;2023-04-05T04:53:15;101254.75;;;-2.60;100.00
19210;BME280;9738;51.654;14.238;2023-04-05T04:55:43;101259.88;;;-2.57;100.00
19210;BME280;9738;51.654;14.238;2023-04-05T04:58:11;101264.16;;;-2.54;100.00
19210;BME280;9738;51.654;14.238;2023-04-05T05:00:39;101268.50;;;-2.53;100.00
19210;BME280;9738;51.654;14.238;2023-04-05T05:03:07;101264.97;;;-2.52;100.00
19210;BME280;9738;51.654;14.238;2023-04-05T05:05:33;101260.47;;;-2.49;100.00
19210;BME280;9738;51.654;14.238;2023-04-05T05:07:59;101261.25;;;-2.45;100.00
19210;BME280;9738;51.654;14.238;2023-04-05T05:10:25;101268.03;;;-2.39;100.00
19210;BME280;9738;51.654;14.238;2023-04-05T05:12:51;101267.09;;;-2.37;100.00
19210;BME280;9738;51.654;14.238;2023-04-05T05:15:18;101262.63;;;-2.33;100.00
19210;BME280;9738;51.654;14.238;2023-04-05T05:17:43;101265.09;;;-2.29;100.00
19210;BME280;9738;51.654;14.238;2023-04-05T05:20:10;101266.56;;;-2.20;100.00
19210;BME280;9738;51.654;14.238;2023-04-05T05:22:38;101260.06;;;-2.08;100.00
19210;BME280;9738;51.654;14.238;2023-04-05T05:25:05;101266.66;;;-1.97;100.00
19210;BME280;9738;51.654;14.238;2023-04-05T05:27:31;101266.28;;;-1.86;100.00
19210;BME280;9738;51.654;14.238;2023-04-05T05:30:01;101263.22;;;-1.74;100.00
19210;BME280;9738;51.654;14.238;2023-04-05T05:32:27;101257.78;;;-1.68;100.00
19210;BME280;9738;51.654;14.238;2023-04-05T05:34:53;101258.44;;;-1.61;100.00
19210;BME280;9738;51.654;14.238;2023-04-05T05:37:21;101266.78;;;-1.50;100.00
19210;BME280;9738;51.654;14.238;2023-04-05T05:39:47;101253.38;;;-1.42;100.00
19210;BME280;9738;51.654;14.238;2023-04-05T05:42:13;101258.25;;;-1.31;100.00
19210;BME280;9738;51.654;14.238;2023-04-05T05:44:39;101262.34;;;-1.24;100.00
19210;BME280;9738;51.654;14.238;2023-04-05T05:47:05;101267.38;;;-1.18;100.00
19210;BME280;9738;51.654;14.238;2023-04-05T05:49:31;101262.75;;;-1.12;100.00
19210;BME280;9738;51.654;14.238;2023-04-05T05:51:57;101257.16;;;-1.02;100.00
19210;BME280;9738;51.654;14.238;2023-04-05T05:54:24;101269.16;;;-0.95;100.00
19210;BME280;9738;51.654;14.238;2023-04-05T05:56:50;101263.53;;;-0.86;100.00
19210;BME280;9738;51.654;14.238;2023-04-05T05:59:16;101258.00;;;-0.78;100.00
19210;BME280;9738;51.654;14.238;2023-04-05T06:01:42;101257.69;;;-0.71;100.00
19210;BME280;9738;51.654;14.238;2023-04-05T06:04:12;101259.97;;;-0.62;100.00
19210;BME280;9738;51.654;14.238;2023-04-05T06:06:38;101263.16;;;-0.53;100.00
19210;BME280;9738;51.654;14.238;2023-04-05T06:09:07;101257.56;;;-0.44;100.00
19210;BME280;9738;51.654;14.238;2023-04-05T06:11:33;101249.31;;;-0.35;100.00
19210;BME280;9738;51.654;14.238;2023-04-05T06:13:59;101259.41;;;-0.26;100.00
19210;BME280;9738;51.654;14.238;2023-04-05T06:16:25;101253.03;;;-0.19;100.00
19210;BME280;9738;51.654;14.238;2023-04-05T06:18:51;101252.63;;;-0.10;100.00
19210;BME280;9738;51.654;14.238;2023-04-05T06:21:20;101252.06;;;0.04;100.00
19210;BME280;9738;51.654;14.238;2023-04-05T06:23:46;101247.13;;;0.17;100.00
19210;BME280;9738;51.654;14.238;2023-04-05T06:26:16;101245.75;;;0.29;100.00
19210;BME280;9738;51.654;14.238;2023-04-05T06:28:43;101238.34;;;0.38;100.00
19210;BME280;9738;51.654;14.238;2023-04-05T06:31:13;101247.59;;;0.47;100.00
19210;BME280;9738;51.654;14.238;2023-04-05T06:33:40;101242.25;;;0.48;100.00
19210;BME280;9738;51.654;14.238;2023-04-05T06:36:07;101239.38;;;0.54;100.00
19210;BME280;9738;51.654;14.238;2023-04-05T06:38:33;101239.59;;;0.69;100.00
19210;BME280;9738;51.654;14.238;2023-04-05T06:40:59;101228.59;;;0.79;100.00
19210;BME280;9738;51.654;14.238;2023-04-05T06:43:26;101232.66;;;0.87;100.00
19210;BME280;9738;51.654;14.238;2023-04-05T06:45:54;101230.59;;;0.93;100.00
19210;BME280;9738;51.654;14.238;2023-04-05T06:48:20;101234.81;;;0.97;100.00
19210;BME280;9738;51.654;14.238;2023-04-05T06:50:46;101237.06;;;1.05;100.00
19210;BME280;9738;51.654;14.238;2023-04-05T06:53:20;101238.50;;;1.12;100.00
19210;BME280;9738;51.654;14.238;2023-04-05T06:55:48;101234.44;;;1.24;100.00
19210;BME280;9738;51.654;14.238;2023-04-05T06:58:15;101238.50;;;1.31;100.00
19210;BME280;9738;51.654;14.238;2023-04-05T07:00:41;101242.53;;;1.38;100.00
19210;BME280;9738;51.654;14.238;2023-04-05T07:03:07;101232.56;;;1.45;100.00
19210;BME280;9738;51.654;14.238;2023-04-05T07:05:33;101232.34;;;1.49;100.00
19210;BME280;9738;51.654;14.238;2023-04-05T07:07:59;101230.44;;;1.53;100.00
19210;BME280;9738;51.654;14.238;2023-04-05T07:10:25;101223.84;;;1.61;100.00
19210;BME280;9738;51.654;14.238;2023-04-05T07:12:51;101224.31;;;1.70;100.00
19210;BME280;9738;51.654;14.238;2023-04-05T07:15:16;101216.22;;;1.74;100.00
19210;BME280;9738;51.654;14.238;2023-04-05T07:17:43;101225.34;;;1.84;100.00
19210;BME280;9738;51.654;14.238;2023-04-05T07:20:09;101228.91;;;1.83;97.45
19210;BME280;9738;51.654;14.238;2023-04-05T07:22:35;101224.97;;;1.92;98.23
19210;BME280;9738;51.654;14.238;2023-04-05T07:25:03;101226.50;;;1.96;97.23
19210;BME280;9738;51.654;14.238;2023-04-05T07:27:30;101226.84;;;2.07;99.28
19210;BME280;9738;51.654;14.238;2023-04-05T07:29:56;101229.16;;;2.13;96.17
19210;BME280;9738;51.654;14.238;2023-04-05T07:32:22;101219.88;;;2.24;95.18
19210;BME280;9738;51.654;14.238;2023-04-05T07:34:48;101218.84;;;2.26;92.25
19210;BME280;9738;51.654;14.238;2023-04-05T07:37:14;101222.94;;;2.32;92.03
19210;BME280;9738;51.654;14.238;2023-04-05T07:39:40;101230.38;;;2.41;92.37
19210;BME280;9738;51.654;14.238;2023-04-05T07:42:06;101230.03;;;2.47;89.73
19210;BME280;9738;51.654;14.238;2023-04-05T07:44:32;101223.69;;;2.51;89.80
19210;BME280;9738;51.654;14.238;2023-04-05T07:46:58;101226.63;;;2.62;91.56
19210;BME280;9738;51.654;14.238;2023-04-05T07:49:25;101229.69;;;2.70;88.90
19210;BME280;9738;51.654;14.238;2023-04-05T07:51:58;101230.91;;;2.81;88.77
19210;BME280;9738;51.654;14.238;2023-04-05T07:54:24;101231.97;;;2.94;90.07
19210;BME280;9738;51.654;14.238;2023-04-05T07:56:50;101222.44;;;3.07;85.82
19210;BME280;9738;51.654;14.238;2023-04-05T07:59:16;101229.09;;;3.14;84.17
19210;BME280;9738;51.654;14.238;2023-04-05T08:01:42;101220.81;;;3.20;83.33
19210;BME280;9738;51.654;14.238;2023-04-05T08:04:08;101218.84;;;3.24;82.83
19210;BME280;9738;51.654;14.238;2023-04-05T08:06:34;101223.63;;;3.33;82.25
19210;BME280;9738;51.654;14.238;2023-04-05T08:09:00;101223.78;;;3.46;82.26
19210;BME280;9738;51.654;14.238;2023-04-05T08:11:30;101216.97;;;3.58;82.29
19210;BME280;9738;51.654;14.238;2023-04-05T08:13:56;101218.47;;;3.77;81.97
19210;BME280;9738;51.654;14.238;2023-04-05T08:16:23;101219.44;;;3.91;81.47
19210;BME280;9738;51.654;14.238;2023-04-05T08:18:48;101220.06;;;4.10;79.55
19210;BME280;9738;51.654;14.238;2023-04-05T08:21:14;101208.56;;;4.25;75.43
19210;BME280;9738;51.654;14.238;2023-04-05T08:23:41;101210.41;;;4.39;71.02
19210;BME280;9738;51.654;14.238;2023-04-05T08:26:06;101210.59;;;4.50;71.23
19210;BME280;9738;51.654;14.238;2023-04-05T08:28:33;101208.81;;;4.65;71.58
19210;BME280;9738;51.654;14.238;2023-04-05T08:30:59;101207.38;;;4.74;65.96
19210;BME280;9738;51.654;14.238;2023-04-05T08:33:25;101207.38;;;4.88;66.65
19210;BME280;9738;51.654;14.238;2023-04-05T08:35:56;101203.38;;;4.95;63.97
19210;BME280;9738;51.654;14.238;2023-04-05T08:38:22;101197.72;;;5.01;62.55
19210;BME280;9738;51.654;14.238;2023-04-05T08:40:48;101202.72;;;5.06;61.17
19210;BME280;9738;51.654;14.238;2023-04-05T08:43:22;101201.88;;;5.05;58.38
19210;BME280;9738;51.654;14.238;2023-04-05T08:45:51;101201.22;;;5.16;59.82
19210;BME280;9738;51.654;14.238;2023-04-05T08:48:18;101193.66;;;5.37;59.46
19210;BME280;9738;51.654;14.238;2023-04-05T08:50:54;101190.81;;;5.67;61.92
19210;BME280;9738;51.654;14.238;2023-04-05T08:53:21;101201.13;;;5.84;57.86
19210;BME280;9738;51.654;14.238;2023-04-05T08:55:49;101193.25;;;5.97;58.16
19210;BME280;9738;51.654;14.238;2023-04-05T08:58:20;101194.53;;;6.30;61.65
19210;BME280;9738;51.654;14.238;2023-04-05T09:00:50;101186.38;;;6.58;56.73
19210;BME280;9738;51.654;14.238;2023-04-05T09:03:20;101191.56;;;6.85;56.65
19210;BME280;9738;51.654;14.238;2023-04-05T09:05:51;101193.50;;;7.20;57.67
19210;BME280;9738;51.654;14.238;2023-04-05T09:08:18;101187.53;;;7.53;54.95
19210;BME280;9738;51.654;14.238;2023-04-05T09:10:48;101181.56;;;7.49;54.87
19210;BME280;9738;51.654;14.238;2023-04-05T09:13:15;101188.56;;;7.50;53.55
19210;BME280;9738;51.654;14.238;2023-04-05T09:15:42;101188.97;;;7.57;52.69
19210;BME280;9738;51.654;14.238;2023-04-05T09:18:08;101178.41;;;7.68;52.30
19210;BME280;9738;51.654;14.238;2023-04-05T09:20:34;101179.56;;;7.88;51.10
19210;BME280;9738;51.654;14.238;2023-04-05T09:23:01;101183.94;;;8.00;51.58
19210;BME280;9738;51.654;14.238;2023-04-05T09:25:34;101178.75;;;7.99;51.48
19210;BME280;9738;51.654;14.238;2023-04-05T09:28:05;101177.22;;;8.19;51.54
19210;BME280;9738;51.654;14.238;2023-04-05T09:30:32;101181.56;;;8.08;48.71
19210;BME280;9738;51.654;14.238;2023-04-05T09:32:58;101178.66;;;8.11;50.22
19210;BME280;9738;51.654;14.238;2023-04-05T09:35:25;101172.97;;;8.05;48.87
19210;BME280;9738;51.654;14.238;2023-04-05T09:38:02;101181.81;;;8.17;51.14
19210;BME280;9738;51.654;14.238;2023-04-05T09:40:41;101173.13;;;8.26;49.67
19210;BME280;9738;51.654;14.238;2023-04-05T09:43:08;101181.09;;;8.26;50.48
19210;BME280;9738;51.654;14.238;2023-04-05T09:45:39;101176.50;;;8.17;48.92
19210;BME280;9738;51.654;14.238;2023-04-05T09:48:06;101183.06;;;8.24;51.24
19210;BME280;9738;51.654;14.238;2023-04-05T09:50:33;101183.50;;;8.18;49.54
19210;BME280;9738;51.654;14.238;2023-04-05T09:53:09;101180.06;;;7.93;48.75
19210;BME280;9738;51.654;14.238;2023-04-05T09:55:40;101176.94;;;7.99;51.08
19210;BME280;9738;51.654;14.238;2023-04-05T09:58:11;101178.06;;;8.08;50.16
19210;BME280;9738;51.654;14.238;2023-04-05T10:00:37;101169.63;;;8.25;50.33
19210;BME280;9738;51.654;14.238;2023-04-05T10:03:04;101168.97;;;8.57;51.67
19210;BME280;9738;51.654;14.238;2023-04-05T10:05:30;101167.63;;;8.74;50.31
19210;BME280;9738;51.654;14.238;2023-04-05T10:07:57;101172.00;;;8.86;50.00
19210;BME280;9738;51.654;14.238;2023-04-05T10:10:23;101160.09;;;8.90;49.88
19210;BME280;9738;51.654;14.238;2023-04-05T10:12:50;101164.50;;;8.91;49.83
19210;BME280;9738;51.654;14.238;2023-04-05T10:15:18;101157.44;;;9.01;49.50
19210;BME280;9738;51.654;14.238;2023-04-05T10:18:17;101165.91;;;8.95;50.14
19210;BME280;9738;51.654;14.238;2023-04-05T10:20:42;101160.38;;;8.87;47.98
19210;BME280;9738;51.654;14.238;2023-04-05T10:23:16;101160.13;;;8.79;49.02
19210;BME280;9738;51.654;14.238;2023-04-05T10:28:36;101156.00;;;8.41;50.06
19210;BME280;9738;51.654;14.238;2023-04-05T10:31:27;101159.47;;;8.30;50.07
19210;BME280;9738;51.654;14.238;2023-04-05T10:36:52;101159.78;;;8.03;52.27
19210;BME280;9738;51.654;14.238;2023-04-05T10:41:59;101158.53;;;7.85;54.95
19210;BME280;9738;51.654;14.238;2023-04-05T10:44:25;101154.91;;;7.86;55.82
19210;BME280;9738;51.654;14.238;2023-04-05T10:46:53;101141.84;;;7.94;56.49
19210;BME280;9738;51.654;14.238;2023-04-05T10:49:32;101155.44;;;8.02;53.85
19210;BME280;9738;51.654;14.238;2023-04-05T10:52:02;101157.72;;;8.07;52.24
19210;BME280;9738;51.654;14.238;2023-04-05T10:54:31;101157.13;;;8.03;51.16
19210;BME280;9738;51.654;14.238;2023-04-05T10:56:59;101158.84;;;8.16;53.02
19210;BME280;9738;51.654;14.238;2023-04-05T10:59:26;101153.53;;;8.16;51.71
19210;BME280;9738;51.654;14.238;2023-04-05T11:01:53;101152.06;;;8.11;51.81
19210;BME280;9738;51.654;14.238;2023-04-05T11:04:19;101156.56;;;8.22;51.16
19210;BME280;9738;51.654;14.238;2023-04-05T11:06:46;101156.00;;;8.52;51.92
19210;BME280;9738;51.654;14.238;2023-04-05T11:09:17;101140.75;;;8.77;50.61
19210;BME280;9738;51.654;14.238;2023-04-05T11:11:48;101148.09;;;8.96;51.00
19210;BME280;9738;51.654;14.238;2023-04-05T11:14:36;101140.97;;;8.96;51.10
19210;BME280;9738;51.654;14.238;2023-04-05T11:17:02;101140.50;;;8.80;51.64
19210;BME280;9738;51.654;14.238;2023-04-05T11:22:07;101148.47;;;7.77;58.35
19210;BME280;9738;51.654;14.238;2023-04-05T11:24:53;101158.41;;;7.27;63.50
19210;BME280;9738;51.654;14.238;2023-04-05T11:27:25;101159.00;;;7.07;66.30
19210;BME280;9738;51.654;14.238;2023-04-05T11:29:54;101163.19;;;6.86;66.64
19210;BME280;9738;51.654;14.238;2023-04-05T11:32:20;101162.06;;;6.64;68.44
19210;BME280;9738;51.654;14.238;2023-04-05T11:35:05;101159.13;;;6.56;66.50
19210;BME280;9738;51.654;14.238;2023-04-05T11:40:25;101158.88;;;6.72;67.45
19210;BME280;9738;51.654;14.238;2023-04-05T11:43:09;101165.97;;;6.84;66.35
19210;BME280;9738;51.654;14.238;2023-04-05T11:45:37;101161.63;;;6.83;64.73
19210;BME280;9738;51.654;14.238;2023-04-05T11:48:11;101154.25;;;6.87;64.05
19210;BME280;9738;51.654;14.238;2023-04-05T11:50:39;101151.16;;;6.93;65.30
19210;BME280;9738;51.654;14.238;2023-04-05T11:55:38;101146.34;;;7.11;64.39
19210;BME280;9738;51.654;14.238;2023-04-05T11:58:30;101140.13;;;7.23;63.22
19210;BME280;9738;51.654;14.238;2023-04-05T12:01:00;101143.50;;;7.49;60.49
19210;BME280;9738;51.654;14.238;2023-04-05T12:03:26;101130.75;;;7.89;58.81
19210;BME280;9738;51.654;14.238;2023-04-05T12:05:57;101126.69;;;8.30;59.52
19210;BME280;9738;51.654;14.238;2023-04-05T12:08:37;101125.66;;;8.66;57.02
19210;BME280;9738;51.654;14.238;2023-04-05T12:11:06;101125.22;;;9.04;57.31
19210;BME280;9738;51.654;14.238;2023-04-05T12:13:33;101118.44;;;9.00;55.75
19210;BME280;9738;51.654;14.238;2023-04-05T12:16:03;101124.66;;;8.56;56.92
19210;BME280;9738;51.654;14.238;2023-04-05T12:18:32;101124.75;;;8.32;56.63
19210;BME280;9738;51.654;14.238;2023-04-05T12:21:04;101130.06;;;8.21;58.60
19210;BME280;9738;51.654;14.238;2023-04-05T12:23:30;101124.56;;;8.00;55.20
19210;BME280;9738;51.654;14.238;2023-04-05T12:25:56;101122.25;;;7.84;56.52
19210;BME280;9738;51.654;14.238;2023-04-05T12:28:23;101116.91;;;7.73;55.26
19210;BME280;9738;51.654;14.238;2023-04-05T12:30:52;101122.41;;;7.58;57.54
19210;BME280;9738;51.654;14.238;2023-04-05T12:33:28;101119.59;;;7.49;57.73
19210;BME280;9738;51.654;14.238;2023-04-05T12:35:55;101114.59;;;7.33;57.72
19210;BME280;9738;51.654;14.238;2023-04-05T12:38:25;101114.69;;;7.31;59.08
19210;BME280;9738;51.654;14.238;2023-04-05T12:40:58;101106.81;;;7.30;58.91
19210;BME280;9738;51.654;14.238;2023-04-05T12:43:24;101108.06;;;7.37;58.46
19210;BME280;9738;51.654;14.238;2023-04-05T12:45:52;101104.53;;;7.61;57.74
19210;BME280;9738;51.654;14.238;2023-04-05T12:48:22;101102.50;;;7.75;55.86
19210;BME280;9738;51.654;14.238;2023-04-05T12:50:49;101097.59;;;7.93;56.71
19210;BME280;9738;51.654;14.238;2023-04-05T12:53:20;101096.63;;;7.94;54.58
19210;BME280;9738;51.654;14.238;2023-04-05T12:55:52;101103.06;;;7.92;56.04
19210;BME280;9738;51.654;14.238;2023-04-05T12:58:19;101106.47;;;8.05;56.66
19210;BME280;9738;51.654;14.238;2023-04-05T13:00:46;101094.50;;;8.33;56.88
19210;BME280;9738;51.654;14.238;2023-04-05T13:03:16;101095.16;;;8.59;56.41
19210;BME280;9738;51.654;14.238;2023-04-05T13:05:43;101099.72;;;8.68;56.08
19210;BME280;9738;51.654;14.238;2023-04-05T13:08:08;101098.66;;;8.59;53.55
19210;BME280;9738;51.654;14.238;2023-04-05T13:10:34;101099.38;;;8.50;52.91
19210;BME280;9738;51.654;14.238;2023-04-05T13:13:00;101091.38;;;8.39;52.79
19210;BME280;9738;51.654;14.238;2023-04-05T13:15:26;101091.25;;;8.29;53.42